Time;durP1;ratioP1;P1;durP2;ratioP2;P2;SDS_P1;SDS_P2;PMS_P1;PMS_P2;Temp;Humidity;BMP_temperature;BMP_pressure;BME280_temperature;BME280_humidity;BME280_pressure;Samples;Min_cycle;Max_cycle;Signal;HPM_P1;HPM_P2
2023/09/17 00:01:43;;;;;;;5.63;5.05;;;;;;;;;;5060541;28;20183;-96
2023/09/17 00:04:10;;;;;;;5.60;5.03;;;;;;;;;;5052458;28;20281;-93
2023/09/17 00:06:37;;;;;;;6.53;5.30;;;;;;;;;;5046742;28;20211;-95
2023/09/17 00:09:05;;;;;;;6.35;5.13;;;;;;;;;;5046081;28;20219;-96
2023/09/17 00:11:34;;;;;;;5.88;5.38;;;;;;;;;;5046300;28;20235;-96
2023/09/17 00:14:03;;;;;;;6.47;5.85;;;;;;;;;;5047508;28;20233;-95
2023/09/17 00:16:32;;;;;;;5.97;5.38;;;;;;;;;;5044630;28;20234;-96
2023/09/17 00:18:59;;;;;;;5.65;5.13;;;;;;;;;;5043809;28;20238;-96
2023/09/17 00:21:26;;;;;;;7.35;5.63;;;;;;;;;;5041602;28;20237;-96
2023/09/17 00:23:53;;;;;;;5.53;5.00;;;;;;;;;;5047125;28;20199;-96
2023/09/17 00:26:20;;;;;;;9.15;5.45;;;;;;;;;;5044306;28;20230;-96
2023/09/17 00:28:49;;;;;;;5.97;5.32;;;;;;;;;;5042739;28;20226;-96
2023/09/17 00:31:18;;;;;;;5.72;5.20;;;;;;;;;;5039806;28;20284;-95
2023/09/17 00:33:45;;;;;;;6.15;5.05;;;;;;;;;;5045201;28;20254;-96
2023/09/17 00:36:13;;;;;;;5.82;5.32;;;;;;;;;;5045069;28;20230;-96
2023/09/17 00:38:41;;;;;;;5.95;5.38;;;;;;;;;;5047915;28;20219;-96
2023/09/17 00:41:08;;;;;;;5.97;5.38;;;;;;;;;;5045640;28;20235;-96
2023/09/17 00:43:37;;;;;;;7.03;5.53;;;;;;;;;;5044454;28;20301;-96
2023/09/17 00:46:04;;;;;;;6.47;5.63;;;;;;;;;;5044103;28;20237;-96
2023/09/17 00:48:33;;;;;;;5.90;5.20;;;;;;;;;;5049474;28;20288;-96
2023/09/17 00:51:01;;;;;;;5.63;5.13;;;;;;;;;;5051986;28;20243;-96
2023/09/17 00:53:29;;;;;;;6.35;5.53;;;;;;;;;;5051042;28;20226;-96
2023/09/17 00:55:56;;;;;;;6.35;5.68;;;;;;;;;;5049364;28;20244;-96
2023/09/17 00:58:24;;;;;;;8.05;6.25;;;;;;;;;;5049817;28;20262;-96
2023/09/17 01:00:52;;;;;;;6.82;6.18;;;;;;;;;;5043882;28;20234;-96
2023/09/17 01:03:19;;;;;;;6.90;5.53;;;;;;;;;;5042513;28;20207;-96
2023/09/17 01:05:51;;;;;;;6.20;5.60;;;;;;;;;;5039507;28;20233;-96
2023/09/17 01:08:19;;;;;;;6.57;5.38;;;;;;;;;;5042222;28;20716;-96
2023/09/17 01:10:48;;;;;;;5.60;5.00;;;;;;;;;;5042034;28;20325;-96
2023/09/17 01:13:15;;;;;;;7.03;5.00;;;;;;;;;;5041469;28;20223;-96
2023/09/17 01:15:42;;;;;;;4.65;4.25;;;;;;;;;;5039392;28;20318;-96
2023/09/17 01:18:11;;;;;;;4.65;4.20;;;;;;;;;;5043267;28;20254;-96
2023/09/17 01:20:42;;;;;;;5.60;4.60;;;;;;;;;;5047075;28;20321;-96
2023/09/17 01:23:15;;;;;;;5.45;4.93;;;;;;;;;;5048910;28;20203;-96
2023/09/17 01:25:47;;;;;;;7.13;4.40;;;;;;;;;;5047261;28;20242;-96
2023/09/17 01:28:16;;;;;;;6.82;4.88;;;;;;;;;;5045098;28;20221;-96
2023/09/17 01:30:45;;;;;;;6.60;4.65;;;;;;;;;;5044428;28;20234;-96
2023/09/17 01:33:12;;;;;;;4.93;4.43;;;;;;;;;;5045664;28;20249;-96
2023/09/17 01:35:45;;;;;;;5.18;4.68;;;;;;;;;;5043305;28;20250;-96
2023/09/17 01:38:14;;;;;;;6.00;5.40;;;;;;;;;;5043546;28;20327;-87
2023/09/17 01:40:42;;;;;;;6.97;5.53;;;;;;;;;;5035103;28;20223;-87
2023/09/17 01:43:10;;;;;;;6.97;4.95;;;;;;;;;;5040828;28;20204;-87
2023/09/17 01:45:38;;;;;;;6.53;5.47;;;;;;;;;;5033525;28;20348;-87
2023/09/17 01:48:06;;;;;;;6.35;5.40;;;;;;;;;;5033194;28;20227;-87
2023/09/17 01:50:33;;;;;;;8.75;5.55;;;;;;;;;;5041363;28;20645;-87
2023/09/17 01:53:01;;;;;;;6.82;5.72;;;;;;;;;;5038686;28;20226;-87
2023/09/17 01:55:29;;;;;;;4.60;4.20;;;;;;;;;;5038209;28;20234;-88
2023/09/17 01:57:56;;;;;;;5.45;4.95;;;;;;;;;;5038053;28;20242;-87
2023/09/17 02:00:24;;;;;;;5.88;5.22;;;;;;;;;;5034330;28;20291;-87
2023/09/17 02:02:53;;;;;;;7.63;4.68;;;;;;;;;;5035932;28;20230;-87
2023/09/17 02:05:24;;;;;;;5.57;4.97;;;;;;;;;;5037848;28;20640;-87
2023/09/17 02:07:51;;;;;;;5.93;5.10;;;;;;;;;;5034376;28;20728;-88
2023/09/17 02:10:18;;;;;;;6.20;4.03;;;;;;;;;;5042777;28;20241;-88
2023/09/17 02:12:45;;;;;;;4.95;4.30;;;;;;;;;;5037761;28;20210;-88
2023/09/17 02:15:12;;;;;;;5.35;4.82;;;;;;;;;;5039304;28;20230;-87
2023/09/17 02:17:42;;;;;;;6.03;4.70;;;;;;;;;;5038376;28;20203;-87
2023/09/17 02:20:11;;;;;;;7.10;4.65;;;;;;;;;;5038278;28;20226;-87
2023/09/17 02:22:38;;;;;;;5.63;4.90;;;;;;;;;;5037949;28;20202;-87
2023/09/17 02:25:06;;;;;;;5.82;4.88;;;;;;;;;;5044000;28;20249;-87
2023/09/17 02:27:33;;;;;;;5.57;4.82;;;;;;;;;;5039674;28;20210;-87
2023/09/17 02:30:00;;;;;;;6.10;5.32;;;;;;;;;;5037967;28;20226;-87
2023/09/17 02:32:27;;;;;;;5.90;5.15;;;;;;;;;;5044513;28;20214;-87
2023/09/17 02:34:56;;;;;;;6.80;5.40;;;;;;;;;;5042279;28;20226;-87
2023/09/17 02:37:24;;;;;;;7.90;5.22;;;;;;;;;;5040871;28;20212;-87
2023/09/17 02:39:51;;;;;;;5.55;4.85;;;;;;;;;;5048308;28;20237;-87
2023/09/17 02:42:19;;;;;;;5.70;5.13;;;;;;;;;;5041944;28;20217;-87
2023/09/17 02:44:46;;;;;;;6.60;4.97;;;;;;;;;;5035804;28;20221;-87
2023/09/17 02:47:14;;;;;;;6.95;5.38;;;;;;;;;;5038099;28;20218;-87
2023/09/17 02:49:42;;;;;;;5.45;4.95;;;;;;;;;;5037937;28;20238;-87
2023/09/17 02:52:09;;;;;;;7.22;5.88;;;;;;;;;;5040634;28;20578;-87
2023/09/17 02:54:38;;;;;;;7.22;5.15;;;;;;;;;;5040283;28;20277;-87
2023/09/17 02:57:05;;;;;;;5.68;5.15;;;;;;;;;;5037697;28;20213;-87
2023/09/17 02:59:35;;;;;;;8.23;5.53;;;;;;;;;;5041524;28;20238;-87
2023/09/17 03:02:03;;;;;;;5.53;5.00;;;;;;;;;;5038747;28;20226;-87
2023/09/17 03:04:30;;;;;;;5.38;4.88;;;;;;;;;;5037338;28;20234;-87
2023/09/17 03:06:58;;;;;;;5.45;4.80;;;;;;;;;;5037463;28;20210;-87
2023/09/17 03:09:25;;;;;;;6.15;5.20;;;;;;;;;;5037173;28;20669;-87
2023/09/17 03:11:53;;;;;;;7.18;5.65;;;;;;;;;;5037588;28;20203;-87
2023/09/17 03:14:21;;;;;;;5.50;4.97;;;;;;;;;;5037146;28;20317;-87
2023/09/17 03:16:48;;;;;;;7.18;4.60;;;;;;;;;;5037223;28;20285;-88
2023/09/17 03:19:15;;;;;;;5.90;4.60;;;;;;;;;;5036630;28;20234;-87
2023/09/17 03:21:42;;;;;;;7.85;4.70;;;;;;;;;;5037195;28;20210;-87
2023/09/17 03:24:09;;;;;;;5.63;5.03;;;;;;;;;;5041406;28;20569;-88
2023/09/17 03:26:37;;;;;;;6.38;4.60;;;;;;;;;;5037252;28;20396;-87
2023/09/17 03:29:07;;;;;;;6.55;5.55;;;;;;;;;;5044677;28;20279;-87
2023/09/17 03:31:34;;;;;;;4.68;4.28;;;;;;;;;;5042780;28;20249;-87
2023/09/17 03:34:01;;;;;;;5.45;4.55;;;;;;;;;;5044465;28;20226;-87
2023/09/17 03:36:29;;;;;;;5.25;4.75;;;;;;;;;;5036449;28;20226;-87
2023/09/17 03:38:56;;;;;;;7.30;4.82;;;;;;;;;;5041256;28;20221;-87
2023/09/17 03:41:23;;;;;;;7.03;4.78;;;;;;;;;;5036545;28;20234;-87
2023/09/17 03:43:50;;;;;;;6.88;4.85;;;;;;;;;;5042240;28;20183;-87
2023/09/17 03:46:19;;;;;;;7.60;4.60;;;;;;;;;;5045136;28;20237;-87
2023/09/17 03:48:46;;;;;;;6.30;4.90;;;;;;;;;;5036775;28;20245;-87
2023/09/17 03:51:14;;;;;;;6.70;4.88;;;;;;;;;;5038115;28;20234;-87
2023/09/17 03:53:41;;;;;;;6.57;5.53;;;;;;;;;;5038163;28;20229;-87
2023/09/17 03:56:08;;;;;;;5.33;4.87;;;;;;;;;;5042804;28;20245;-87
2023/09/17 03:58:35;;;;;;;5.95;5.30;;;;;;;;;;5038902;28;20234;-87
2023/09/17 04:01:06;;;;;;;5.35;4.72;;;;;;;;;;5041982;28;20709;-87
2023/09/17 04:03:36;;;;;;;6.85;5.07;;;;;;;;;;5038793;28;20211;-87
2023/09/17 04:06:04;;;;;;;6.00;5.32;;;;;;;;;;5041528;28;20222;-87
2023/09/17 04:08:36;;;;;;;7.28;5.88;;;;;;;;;;5041037;28;20229;-87
2023/09/17 04:11:04;;;;;;;7.78;5.20;;;;;;;;;;5036057;28;20280;-87
2023/09/17 04:13:31;;;;;;;6.25;5.60;;;;;;;;;;5039314;28;20210;-87
2023/09/17 04:15:59;;;;;;;6.60;4.95;;;;;;;;;;5041523;28;20253;-87
2023/09/17 04:18:26;;;;;;;7.55;5.47;;;;;;;;;;5042417;28;20227;-87
2023/09/17 04:20:55;;;;;;;6.50;4.90;;;;;;;;;;5035910;28;20233;-87
2023/09/17 04:23:24;;;;;;;5.70;5.00;;;;;;;;;;5036362;28;20666;-87
2023/09/17 04:25:52;;;;;;;5.85;4.82;;;;;;;;;;5027519;28;20226;-87
2023/09/17 04:28:19;;;;;;;6.18;5.10;;;;;;;;;;5036259;28;20273;-87
2023/09/17 04:30:46;;;;;;;6.03;5.43;;;;;;;;;;5035767;28;20284;-87
2023/09/17 04:33:14;;;;;;;8.70;4.88;;;;;;;;;;5036190;28;20589;-87
2023/09/17 04:35:41;;;;;;;5.20;4.65;;;;;;;;;;5041378;28;20291;-88
2023/09/17 04:38:10;;;;;;;6.90;5.43;;;;;;;;;;5037512;28;20229;-87
2023/09/17 04:40:37;;;;;;;6.13;5.13;;;;;;;;;;5039019;28;20227;-87
2023/09/17 04:43:05;;;;;;;7.07;5.82;;;;;;;;;;5038679;28;20573;-87
2023/09/17 04:45:33;;;;;;;5.85;4.90;;;;;;;;;;5035203;28;20811;-87
2023/09/17 04:48:00;;;;;;;8.37;5.07;;;;;;;;;;5040155;28;20272;-87
2023/09/17 04:50:28;;;;;;;7.60;5.40;;;;;;;;;;5040874;28;20235;-87
2023/09/17 04:52:55;;;;;;;6.97;5.03;;;;;;;;;;5042692;28;20226;-87
2023/09/17 04:55:24;;;;;;;5.57;4.97;;;;;;;;;;5039580;28;20604;-87
2023/09/17 04:57:52;;;;;;;5.47;4.97;;;;;;;;;;5035019;28;20209;-87
2023/09/17 05:00:20;;;;;;;4.97;4.47;;;;;;;;;;5034054;28;20226;-87
2023/09/17 05:02:47;;;;;;;7.87;4.97;;;;;;;;;;5039135;28;20218;-87
2023/09/17 05:05:17;;;;;;;5.87;4.80;;;;;;;;;;5033906;28;20245;-87
2023/09/17 05:07:44;;;;;;;5.87;4.80;;;;;;;;;;5034885;28;20206;-87
2023/09/17 05:10:11;;;;;;;5.75;5.05;;;;;;;;;;5034769;28;20242;-87
2023/09/17 05:12:41;;;;;;;5.22;4.75;;;;;;;;;;5034922;28;20207;-87
2023/09/17 05:15:08;;;;;;;5.83;4.83;;;;;;;;;;5034752;28;20280;-87
2023/09/17 05:17:35;;;;;;;9.83;5.20;;;;;;;;;;5034899;28;20214;-87
2023/09/17 05:20:06;;;;;;;5.90;5.18;;;;;;;;;;5034639;28;20227;-87
2023/09/17 05:22:33;;;;;;;6.07;5.03;;;;;;;;;;5034921;28;20273;-87
2023/09/17 05:25:00;;;;;;;5.40;4.87;;;;;;;;;;5034470;28;20226;-87
2023/09/17 05:27:27;;;;;;;5.73;5.23;;;;;;;;;;5034907;28;20211;-87
2023/09/17 05:29:55;;;;;;;5.53;4.57;;;;;;;;;;5026180;28;20234;-87
2023/09/17 05:32:22;;;;;;;9.30;5.33;;;;;;;;;;5042782;28;20210;-87
2023/09/17 05:34:49;;;;;;;8.13;5.37;;;;;;;;;;5039180;28;20234;-87
2023/09/17 05:37:16;;;;;;;8.00;5.50;;;;;;;;;;5035243;28;20199;-87
2023/09/17 05:39:43;;;;;;;6.13;5.47;;;;;;;;;;5038007;28;20234;-87
2023/09/17 05:42:10;;;;;;;6.63;5.20;;;;;;;;;;5038365;28;20203;-87
2023/09/17 05:44:38;;;;;;;9.37;6.40;;;;;;;;;;5034622;28;20226;-87
2023/09/17 05:47:06;;;;;;;9.90;6.43;;;;;;;;;;5033604;28;20206;-87
2023/09/17 05:49:33;;;;;;;8.80;6.30;;;;;;;;;;5042480;28;20241;-87
2023/09/17 05:52:00;;;;;;;7.80;6.80;;;;;;;;;;5036205;28;20238;-87
2023/09/17 05:54:27;;;;;;;6.40;5.80;;;;;;;;;;5037666;28;20238;-88
2023/09/17 05:56:54;;;;;;;7.77;6.60;;;;;;;;;;5041926;28;20221;-87
2023/09/17 05:59:21;;;;;;;10.00;6.93;;;;;;;;;;5042097;28;20234;-87
2023/09/17 06:01:48;;;;;;;6.83;6.20;;;;;;;;;;5034222;28;20211;-87
2023/09/17 06:04:17;;;;;;;7.72;6.43;;;;;;;;;;5032927;28;20213;-88
2023/09/17 06:06:44;;;;;;;7.90;6.93;;;;;;;;;;5040345;28;20198;-91
2023/09/17 06:09:11;;;;;;;8.25;6.20;;;;;;;;;;5035709;28;20708;-91
2023/09/17 06:11:38;;;;;;;7.78;6.82;;;;;;;;;;5036241;28;20211;-92
2023/09/17 06:14:05;;;;;;;10.17;6.83;;;;;;;;;;5036220;28;20680;-91
2023/09/17 06:16:32;;;;;;;9.77;7.03;;;;;;;;;;5035290;28;20226;-92
2023/09/17 06:18:59;;;;;;;9.97;7.07;;;;;;;;;;5035979;28;20265;-92
2023/09/17 06:21:28;;;;;;;8.70;7.60;;;;;;;;;;5035081;28;20230;-91
2023/09/17 06:23:55;;;;;;;7.85;7.00;;;;;;;;;;5035639;28;20199;-91
2023/09/17 06:26:22;;;;;;;13.25;7.68;;;;;;;;;;5035240;28;20234;-91
2023/09/17 06:28:49;;;;;;;8.67;7.87;;;;;;;;;;5035622;28;20228;-91
2023/09/17 06:31:17;;;;;;;10.32;7.80;;;;;;;;;;5035369;28;20236;-92
2023/09/17 06:33:44;;;;;;;12.82;7.72;;;;;;;;;;5035948;28;20202;-92
2023/09/17 06:36:11;;;;;;;13.32;7.90;;;;;;;;;;5034996;28;20234;-91
2023/09/17 06:38:40;;;;;;;8.63;7.75;;;;;;;;;;5048627;28;20225;-92
2023/09/17 06:41:07;;;;;;;8.40;7.43;;;;;;;;;;5042025;28;20227;-91
2023/09/17 06:43:34;;;;;;;9.27;7.90;;;;;;;;;;5038639;28;20207;-83
2023/09/17 06:46:01;;;;;;;9.38;8.13;;;;;;;;;;5034832;28;20229;-83
2023/09/17 06:48:28;;;;;;;10.05;7.85;;;;;;;;;;5032427;28;20257;-83
2023/09/17 06:50:56;;;;;;;9.80;8.00;;;;;;;;;;5032713;28;20269;-84
2023/09/17 06:53:23;;;;;;;10.10;8.52;;;;;;;;;;5032286;28;20209;-82
2023/09/17 06:55:51;;;;;;;9.93;7.90;;;;;;;;;;5030969;28;20227;-82
2023/09/17 06:58:18;;;;;;;10.38;8.57;;;;;;;;;;5033964;28;20230;-81
2023/09/17 07:00:46;;;;;;;8.45;7.57;;;;;;;;;;5034426;28;20238;-81
2023/09/17 07:03:13;;;;;;;13.73;8.00;;;;;;;;;;5035130;28;20217;-81
2023/09/17 07:05:41;;;;;;;9.75;8.73;;;;;;;;;;5040364;28;20309;-81
2023/09/17 07:08:08;;;;;;;11.98;8.43;;;;;;;;;;5034733;28;20226;-81
2023/09/17 07:10:35;;;;;;;11.57;9.68;;;;;;;;;;5034336;28;20231;-82
2023/09/17 07:13:03;;;;;;;9.43;8.43;;;;;;;;;;5034787;28;20206;-81
2023/09/17 07:15:31;;;;;;;12.35;8.68;;;;;;;;;;5034539;28;20238;-82
2023/09/17 07:17:58;;;;;;;10.02;8.73;;;;;;;;;;5034834;28;20217;-84
2023/09/17 07:20:25;;;;;;;10.02;8.90;;;;;;;;;;5035496;28;20226;-83
2023/09/17 07:22:52;;;;;;;10.13;8.93;;;;;;;;;;5035604;28;20214;-83
2023/09/17 07:25:19;;;;;;;9.65;8.63;;;;;;;;;;5035645;28;20262;-82
2023/09/17 07:27:46;;;;;;;8.88;7.97;;;;;;;;;;5047239;28;20233;-82
2023/09/17 07:30:17;;;;;;;9.65;8.40;;;;;;;;;;5033819;28;20325;-82
2023/09/17 07:32:44;;;;;;;9.45;8.38;;;;;;;;;;5034174;28;20214;-82
2023/09/17 07:35:11;;;;;;;8.00;7.15;;;;;;;;;;5033796;28;20245;-82
2023/09/17 07:37:38;;;;;;;8.13;7.15;;;;;;;;;;5033892;28;20203;-82
2023/09/17 07:40:06;;;;;;;13.25;6.88;;;;;;;;;;5058997;23;20250;-88
2023/09/17 07:42:33;;;;;;;7.53;6.60;;;;;;;;;;5037434;28;20203;-95
2023/09/17 07:45:01;;;;;;;7.15;6.28;;;;;;;;;;5037078;28;20229;-94
2023/09/17 07:47:29;;;;;;;6.95;6.25;;;;;;;;;;5037536;28;20217;-96
2023/09/17 07:49:56;;;;;;;6.57;5.85;;;;;;;;;;5036669;28;20696;-93
2023/09/17 07:52:24;;;;;;;7.43;5.38;;;;;;;;;;5036597;28;20691;-92
2023/09/17 07:54:52;;;;;;;10.68;5.38;;;;;;;;;;5036728;28;20231;-93
2023/09/17 07:57:19;;;;;;;6.00;5.40;;;;;;;;;;5022722;28;20203;-91
2023/09/17 07:59:49;;;;;;;5.90;4.70;;;;;;;;;;5023960;28;20815;-87
2023/09/17 08:02:16;;;;;;;5.55;5.00;;;;;;;;;;5024962;28;20286;-91
2023/09/17 08:04:44;;;;;;;5.65;4.95;;;;;;;;;;5015747;28;20242;-91
2023/09/17 08:07:12;;;;;;;5.80;5.13;;;;;;;;;;5016628;28;20218;-94
2023/09/17 08:09:39;;;;;;;7.32;5.18;;;;;;;;;;5015952;28;20235;-89
2023/09/17 08:12:06;;;;;;;5.95;4.90;;;;;;;;;;5024624;28;20219;-92
2023/09/17 08:14:35;;;;;;;6.00;4.93;;;;;;;;;;5033676;28;20238;-91
2023/09/17 08:17:02;;;;;;;5.60;5.07;;;;;;;;;;5017351;28;20231;-92
2023/09/17 08:19:30;;;;;;;5.20;4.25;;;;;;;;;;5016699;28;20235;-90
2023/09/17 08:21:59;;;;;;;4.50;4.10;;;;;;;;;;5017054;28;20200;-94
2023/09/17 08:24:26;;;;;;;4.38;4.00;;;;;;;;;;5016310;28;20199;-87
2023/09/17 08:26:54;;;;;;;4.18;3.80;;;;;;;;;;5017699;28;20294;-91
2023/09/17 08:29:21;;;;;;;4.53;4.10;;;;;;;;;;5017115;28;20263;-91
2023/09/17 08:31:49;;;;;;;5.22;4.72;;;;;;;;;;5016518;28;20240;-92
2023/09/17 08:34:17;;;;;;;4.80;4.28;;;;;;;;;;5015661;28;20210;-91
2023/09/17 08:36:45;;;;;;;4.32;3.92;;;;;;;;;;5015986;28;20227;-90
2023/09/17 08:39:14;;;;;;;5.55;4.00;;;;;;;;;;5014193;28;20235;-90
2023/09/17 08:41:42;;;;;;;6.53;4.15;;;;;;;;;;5015279;28;20200;-90
2023/09/17 08:44:10;;;;;;;4.70;3.92;;;;;;;;;;5015013;28;20298;-90
2023/09/17 08:46:37;;;;;;;3.85;3.55;;;;;;;;;;5023792;28;20222;-89
2023/09/17 08:49:04;;;;;;;3.95;3.60;;;;;;;;;;5023437;28;20219;-91
2023/09/17 08:51:33;;;;;;;6.68;3.80;;;;;;;;;;5015616;28;20224;-90
2023/09/17 08:54:05;;;;;;;4.40;3.92;;;;;;;;;;5016295;28;20234;-89
2023/09/17 08:56:35;;;;;;;4.60;3.78;;;;;;;;;;5024730;28;20228;-89
2023/09/17 08:59:11;;;;;;;4.70;3.58;;;;;;;;;;5015605;28;20223;-89
2023/09/17 09:01:38;;;;;;;3.88;3.47;;;;;;;;;;5015743;28;20669;-90
2023/09/17 09:04:07;;;;;;;3.92;3.08;;;;;;;;;;5023366;28;20233;-89
2023/09/17 09:06:34;;;;;;;4.00;3.60;;;;;;;;;;5017589;28;20681;-89
2023/09/17 09:09:03;;;;;;;4.65;3.30;;;;;;;;;;5017856;28;20230;-90
2023/09/17 09:11:31;;;;;;;3.80;3.50;;;;;;;;;;5019427;28;20258;-90
2023/09/17 09:14:00;;;;;;;5.20;3.45;;;;;;;;;;5023758;28;20660;-89
2023/09/17 09:16:28;;;;;;;5.03;3.45;;;;;;;;;;5020793;28;20227;-87
2023/09/17 09:18:55;;;;;;;3.75;3.25;;;;;;;;;;5016779;28;20227;-88
2023/09/17 09:21:24;;;;;;;4.30;3.08;;;;;;;;;;5015131;28;20227;-89
2023/09/17 09:23:51;;;;;;;3.67;3.00;;;;;;;;;;5015250;28;20211;-88
2023/09/17 09:26:19;;;;;;;3.85;2.80;;;;;;;;;;5014547;28;20295;-89
2023/09/17 09:28:46;;;;;;;3.65;2.65;;;;;;;;;;5014701;28;20238;-89
2023/09/17 09:31:15;;;;;;;3.70;2.78;;;;;;;;;;5013725;28;20239;-88
2023/09/17 09:33:43;;;;;;;2.80;2.50;;;;;;;;;;5014541;28;20687;-87
2023/09/17 09:36:11;;;;;;;4.65;3.00;;;;;;;;;;5013398;28;20227;-88
2023/09/17 09:38:38;;;;;;;3.25;2.42;;;;;;;;;;5014504;28;20334;-89
2023/09/17 09:41:05;;;;;;;5.72;3.08;;;;;;;;;;5014888;28;20241;-89
2023/09/17 09:43:33;;;;;;;2.65;2.25;;;;;;;;;;5014366;28;20207;-88
2023/09/17 09:46:04;;;;;;;2.33;2.13;;;;;;;;;;5021330;28;20227;-87
2023/09/17 09:48:32;;;;;;;3.30;2.45;;;;;;;;;;5013794;28;20587;-88
2023/09/17 09:50:59;;;;;;;2.42;2.15;;;;;;;;;;5015313;28;20706;-88
2023/09/17 09:53:26;;;;;;;3.40;2.55;;;;;;;;;;5013693;28;20208;-87
2023/09/17 09:55:54;;;;;;;3.22;2.55;;;;;;;;;;5021382;28;20262;-88
2023/09/17 09:58:21;;;;;;;2.78;2.45;;;;;;;;;;5013591;28;20207;-89
2023/09/17 10:00:48;;;;;;;2.65;2.45;;;;;;;;;;5013860;28;20238;-88
2023/09/17 10:03:17;;;;;;;2.40;2.20;;;;;;;;;;5021285;28;20226;-88
2023/09/17 10:05:45;;;;;;;4.47;2.58;;;;;;;;;;5013381;28;20286;-89
2023/09/17 10:08:14;;;;;;;4.03;3.20;;;;;;;;;;5005237;28;20210;-90
2023/09/17 10:10:42;;;;;;;3.42;3.13;;;;;;;;;;5021215;28;20259;-90
2023/09/17 10:13:10;;;;;;;4.00;2.80;;;;;;;;;;5016687;28;20550;-89
2023/09/17 10:15:37;;;;;;;4.47;2.70;;;;;;;;;;5024905;28;20234;-89
2023/09/17 10:18:05;;;;;;;3.83;2.58;;;;;;;;;;5013415;28;20207;-88
2023/09/17 10:20:32;;;;;;;2.58;2.40;;;;;;;;;;5011060;28;20236;-90
2023/09/17 10:23:00;;;;;;;4.35;2.30;;;;;;;;;;5012773;28;20203;-91
2023/09/17 10:25:28;;;;;;;7.68;2.38;;;;;;;;;;5021308;28;20257;-91
2023/09/17 10:27:55;;;;;;;3.55;2.58;;;;;;;;;;5012608;28;20214;-89
2023/09/17 10:30:23;;;;;;;6.70;2.95;;;;;;;;;;5018229;28;20257;-89
2023/09/17 10:32:51;;;;;;;3.30;2.47;;;;;;;;;;5017542;28;20669;-90
2023/09/17 10:35:18;;;;;;;4.82;2.63;;;;;;;;;;5017020;28;20242;-93
2023/09/17 10:37:47;;;;;;;6.32;2.78;;;;;;;;;;5017122;28;20231;-90
2023/09/17 10:40:16;;;;;;;2.78;2.20;;;;;;;;;;5008893;28;20235;-93
2023/09/17 10:42:44;;;;;;;3.50;2.83;;;;;;;;;;5017737;28;20215;-91
2023/09/17 10:45:11;;;;;;;9.65;2.75;;;;;;;;;;5020595;28;20317;-91
2023/09/17 10:47:40;;;;;;;2.58;2.38;;;;;;;;;;5021738;28;20212;-90
2023/09/17 10:50:16;;;;;;;4.88;2.20;;;;;;;;;;5018703;28;20246;-90
2023/09/17 10:52:43;;;;;;;4.90;2.38;;;;;;;;;;5020865;28;20215;-90
2023/09/17 10:55:11;;;;;;;5.10;2.45;;;;;;;;;;5019041;28;20318;-89
2023/09/17 10:57:40;;;;;;;3.95;2.65;;;;;;;;;;5029143;28;20230;-91
2023/09/17 11:00:11;;;;;;;3.08;2.28;;;;;;;;;;5016300;28;20235;-92
2023/09/17 11:02:39;;;;;;;3.05;2.25;;;;;;;;;;5023844;28;20222;-91
2023/09/17 11:05:08;;;;;;;5.07;2.83;;;;;;;;;;5017129;28;20582;-89
2023/09/17 11:07:36;;;;;;;3.72;2.58;;;;;;;;;;5015697;28;20200;-89
2023/09/17 11:10:04;;;;;;;4.72;2.35;;;;;;;;;;5034103;28;20780;-90
2023/09/17 11:12:31;;;;;;;8.70;2.65;;;;;;;;;;5021967;28;20590;-90
2023/09/17 11:15:00;;;;;;;5.65;2.60;;;;;;;;;;5019085;28;20429;-90
2023/09/17 11:17:34;;;;;;;5.63;3.00;;;;;;;;;;5017978;28;20378;-89
2023/09/17 11:20:07;;;;;;;7.22;2.20;;;;;;;;;;5015737;28;20260;-90
2023/09/17 11:22:37;;;;;;;2.83;2.22;;;;;;;;;;5022731;28;20207;-90
2023/09/17 11:25:04;;;;;;;5.25;2.83;;;;;;;;;;5016105;28;20231;-90
2023/09/17 11:27:45;;;;;;;3.63;2.55;;;;;;;;;;5020998;28;20671;-89
2023/09/17 11:30:17;;;;;;;4.65;2.60;;;;;;;;;;5024127;28;20238;-90
2023/09/17 11:32:52;;;;;;;5.93;2.70;;;;;;;;;;5025312;28;20214;-91
2023/09/17 11:35:22;;;;;;;6.45;2.70;;;;;;;;;;5009579;28;20233;-91
2023/09/17 11:37:49;;;;;;;3.20;2.70;;;;;;;;;;5017855;28;20231;-89
2023/09/17 11:40:18;;;;;;;5.75;2.63;;;;;;;;;;5024215;28;20253;-89
2023/09/17 11:42:45;;;;;;;2.47;2.10;;;;;;;;;;5015920;28;20211;-90
2023/09/17 11:45:12;;;;;;;6.55;2.63;;;;;;;;;;5013501;28;20924;-90
2023/09/17 11:47:41;;;;;;;8.25;2.80;;;;;;;;;;5015394;28;20211;-90
2023/09/17 11:50:09;;;;;;;5.13;2.50;;;;;;;;;;5014863;28;20254;-89
2023/09/17 11:52:37;;;;;;;6.80;2.40;;;;;;;;;;5015323;28;20243;-92
2023/09/17 11:55:07;;;;;;;8.55;2.67;;;;;;;;;;5014977;28;20237;-89
2023/09/17 11:57:35;;;;;;;4.40;2.30;;;;;;;;;;5015089;28;20314;-91
2023/09/17 12:00:09;;;;;;;7.88;2.80;;;;;;;;;;5014929;28;20238;-88
2023/09/17 12:02:36;;;;;;;5.97;2.92;;;;;;;;;;5023417;28;20203;-91
2023/09/17 12:05:05;;;;;;;2.58;2.30;;;;;;;;;;5023589;28;20237;-90
2023/09/17 12:07:34;;;;;;;2.92;2.30;;;;;;;;;;5023992;28;20210;-89
2023/09/17 12:10:05;;;;;;;5.22;2.55;;;;;;;;;;5022394;28;20242;-91
2023/09/17 12:12:34;;;;;;;3.78;2.58;;;;;;;;;;5022688;28;20611;-94
2023/09/17 12:15:01;;;;;;;7.78;2.58;;;;;;;;;;5015531;28;20290;-92
2023/09/17 12:17:28;;;;;;;6.30;2.72;;;;;;;;;;5014859;28;20219;-88
2023/09/17 12:20:10;;;;;;;4.75;2.65;;;;;;;;;;5015319;28;20239;-88
2023/09/17 12:22:38;;;;;;;3.55;2.33;;;;;;;;;;5015554;28;20204;-89
2023/09/17 12:25:13;;;;;;;7.95;2.90;;;;;;;;;;5030748;28;20659;-90
2023/09/17 12:27:46;;;;;;;3.33;2.40;;;;;;;;;;5017176;28;20205;-91
2023/09/17 12:30:14;;;;;;;3.20;2.35;;;;;;;;;;5019264;28;20247;-91
2023/09/17 12:32:42;;;;;;;6.95;2.40;;;;;;;;;;5015852;28;20210;-90
2023/09/17 12:35:09;;;;;;;5.22;2.90;;;;;;;;;;5014412;28;20269;-88
2023/09/17 12:37:36;;;;;;;3.85;2.47;;;;;;;;;;5021691;28;20611;-89
2023/09/17 12:40:07;;;;;;;3.92;2.47;;;;;;;;;;5013330;28;20246;-89
2023/09/17 12:42:34;;;;;;;3.05;2.35;;;;;;;;;;5014600;28;20203;-89
2023/09/17 12:45:01;;;;;;;4.50;2.63;;;;;;;;;;5013494;28;20230;-88
2023/09/17 12:47:31;;;;;;;5.63;2.85;;;;;;;;;;5013843;28;20203;-89
2023/09/17 12:49:59;;;;;;;4.43;2.70;;;;;;;;;;5013486;28;20239;-92
2023/09/17 12:52:26;;;;;;;3.15;2.47;;;;;;;;;;5014574;28;20234;-90
2023/09/17 12:54:55;;;;;;;6.13;2.42;;;;;;;;;;5009975;28;20239;-88
2023/09/17 12:57:23;;;;;;;4.45;2.30;;;;;;;;;;5013470;28;20223;-88
2023/09/17 12:59:53;;;;;;;5.15;2.90;;;;;;;;;;5007441;28;20238;-89
2023/09/17 13:02:28;;;;;;;4.75;2.38;;;;;;;;;;5024134;28;20262;-91
2023/09/17 13:04:55;;;;;;;6.43;2.70;;;;;;;;;;5014693;28;20230;-92
2023/09/17 13:07:23;;;;;;;6.03;2.67;;;;;;;;;;5014125;28;20222;-92
2023/09/17 13:09:54;;;;;;;5.53;2.70;;;;;;;;;;5014985;28;20366;-89
2023/09/17 13:12:23;;;;;;;2.75;2.40;;;;;;;;;;5021975;28;20203;-90
2023/09/17 13:14:52;;;;;;;4.55;2.38;;;;;;;;;;5021909;28;20231;-89
2023/09/17 13:17:19;;;;;;;6.05;2.85;;;;;;;;;;5017374;28;20479;-89
2023/09/17 13:19:46;;;;;;;3.92;2.47;;;;;;;;;;5013629;28;20235;-88
2023/09/17 13:22:15;;;;;;;5.30;2.70;;;;;;;;;;5014131;28;20203;-90
2023/09/17 13:24:42;;;;;;;4.22;2.80;;;;;;;;;;5013571;28;20231;-89
2023/09/17 13:27:10;;;;;;;7.82;2.47;;;;;;;;;;5015519;28;20207;-90
2023/09/17 13:29:38;;;;;;;5.75;2.40;;;;;;;;;;5015424;28;20285;-90
2023/09/17 13:32:09;;;;;;;6.82;2.47;;;;;;;;;;5016142;28;20210;-90
2023/09/17 13:34:36;;;;;;;3.58;2.53;;;;;;;;;;5015791;28;20226;-90
2023/09/17 13:37:04;;;;;;;3.90;2.60;;;;;;;;;;5014232;28;20285;-89
2023/09/17 14:59:11;;;;;;;5.07;2.90;;;;;;;;;;5043285;28;20227;-91
2023/09/17 15:01:38;;;;;;;5.63;2.47;;;;;;;;;;5039020;28;20267;-92
2023/09/17 15:04:05;;;;;;;5.70;2.30;;;;;;;;;;5040108;28;20217;-93
2023/09/17 15:06:32;;;;;;;9.32;2.42;;;;;;;;;;5038572;28;20673;-91
2023/09/17 15:09:00;;;;;;;6.85;2.15;;;;;;;;;;5038401;28;20203;-94
2023/09/17 15:11:27;;;;;;;7.80;2.47;;;;;;;;;;5038686;28;20214;-96
2023/09/17 15:13:55;;;;;;;4.40;2.05;;;;;;;;;;5043346;28;20195;-96
2023/09/17 15:16:24;;;;;;;5.60;2.42;;;;;;;;;;5042247;28;20238;-95
2023/09/17 15:18:54;;;;;;;5.72;2.15;;;;;;;;;;5050720;28;20233;-96
